Time;durP1;ratioP1;P1;durP2;ratioP2;P2;SDS_P1;SDS_P2;PMS_P1;PMS_P2;Temp;Humidity;BMP_temperature;BMP_pressure;BME280_temperature;BME280_humidity;BME280_pressure;Samples;Min_cycle;Max_cycle;Signal;HPM_P1;HPM_P2
2023/12/28 00:02:04;;;;;;;3.92;3.72;;;;;;;9.18;100.00;100102.50;6051586;23;20079;-71
2023/12/28 00:04:30;;;;;;;4.32;4.13;;;;;;;9.43;100.00;100148.25;6053941;23;20284;-73
2023/12/28 00:06:57;;;;;;;4.20;4.00;;;;;;;9.26;100.00;100130.88;6054999;23;20022;-71
2023/12/28 00:09:24;;;;;;;4.10;3.90;;;;;;;8.85;100.00;100099.13;6045986;23;20059;-72
2023/12/28 00:11:50;;;;;;;4.15;3.95;;;;;;;9.43;100.00;100221.59;6052055;23;20968;-72
2023/12/28 00:14:16;;;;;;;4.10;3.90;;;;;;;9.24;100.00;100145.84;6055027;23;20032;-71
2023/12/28 00:16:43;;;;;;;4.97;4.78;;;;;;;9.29;100.00;100159.50;6038037;23;20018;-73
2023/12/28 00:19:09;;;;;;;4.53;4.30;;;;;;;9.35;100.00;100176.66;6034188;23;20026;-73
2023/12/28 00:21:36;;;;;;;4.70;4.25;;;;;;;9.33;100.00;100170.66;6032025;23;20034;-72
2023/12/28 00:24:03;;;;;;;4.00;3.80;;;;;;;9.17;100.00;100168.03;6055085;23;20484;-72
2023/12/28 00:26:29;;;;;;;4.18;3.88;;;;;;;9.38;100.00;100245.44;6048099;23;20051;-72
2023/12/28 00:28:56;;;;;;;4.45;4.25;;;;;;;9.23;100.00;100253.25;6052255;23;20508;-73
2023/12/28 00:31:23;;;;;;;4.78;4.47;;;;;;;8.73;100.00;100185.19;6051182;23;20030;-72
2023/12/28 00:33:50;;;;;;;4.20;4.00;;;;;;;9.30;100.00;100299.13;6029730;23;20028;-72
2023/12/28 00:36:16;;;;;;;4.20;4.00;;;;;;;9.06;100.00;100275.09;6038919;23;20055;-72
2023/12/28 00:38:43;;;;;;;4.75;4.55;;;;;;;9.15;100.00;100321.72;6043435;23;20030;-73
2023/12/28 00:41:09;;;;;;;4.38;4.18;;;;;;;8.78;100.00;100298.31;6055269;23;20006;-73
2023/12/28 00:43:36;;;;;;;3.85;3.67;;;;;;;9.02;100.00;100358.19;6043065;23;20110;-74
2023/12/28 00:46:02;;;;;;;3.90;3.70;;;;;;;8.88;100.00;100353.66;6031672;23;20347;-73
2023/12/28 00:48:29;;;;;;;4.50;4.20;;;;;;;8.95;100.00;100356.78;6045752;23;20046;-70
2023/12/28 00:50:55;;;;;;;4.95;4.75;;;;;;;8.81;100.00;100344.41;6016382;23;20455;-72
2023/12/28 00:53:22;;;;;;;7.57;4.28;;;;;;;9.02;100.00;100376.50;6051647;23;20346;-72
2023/12/28 00:55:48;;;;;;;4.00;3.80;;;;;;;8.96;100.00;100395.09;5992492;23;20023;-74
2023/12/28 00:58:15;;;;;;;3.72;3.60;;;;;;;8.65;100.00;100356.56;6024596;23;20301;-72
2023/12/28 01:00:41;;;;;;;8.57;4.50;;;;;;;8.98;100.00;100396.75;6055001;23;20520;-71
2023/12/28 01:03:10;;;;;;;4.00;3.80;;;;;;;8.92;100.00;100404.03;6037807;23;20088;-70
2023/12/28 01:05:36;;;;;;;4.00;3.80;;;;;;;8.96;100.00;100421.28;6006745;23;20090;-70
2023/12/28 01:08:04;;;;;;;4.20;4.00;;;;;;;8.48;100.00;100331.22;6045287;23;20410;-72
2023/12/28 01:10:30;;;;;;;3.83;3.63;;;;;;;8.76;100.00;100372.59;6018859;23;20051;-73
2023/12/28 01:12:56;;;;;;;4.43;4.13;;;;;;;8.89;100.00;100399.81;6047225;23;20274;-74
2023/12/28 01:15:23;;;;;;;4.38;3.97;;;;;;;8.75;100.00;100405.72;6047387;23;20038;-72
2023/12/28 01:17:50;;;;;;;4.05;3.85;;;;;;;8.89;100.00;100414.69;6044871;23;20704;-72
2023/12/28 01:20:16;;;;;;;4.03;3.83;;;;;;;8.55;100.00;100359.63;6043737;23;20370;-73
2023/12/28 01:22:42;;;;;;;4.82;4.63;;;;;;;8.97;100.00;100408.13;6056339;23;20095;-71
2023/12/28 01:25:09;;;;;;;4.10;3.90;;;;;;;8.76;100.00;100378.66;6057573;23;20022;-71
2023/12/28 01:27:35;;;;;;;7.75;3.90;;;;;;;8.95;100.00;100398.66;6019195;23;20029;-73
2023/12/28 01:30:02;;;;;;;4.20;3.90;;;;;;;8.58;100.00;100332.50;6039026;23;20066;-72
2023/12/28 01:32:29;;;;;;;3.88;3.67;;;;;;;8.98;100.00;100409.00;6036577;23;20019;-71
2023/12/28 01:34:55;;;;;;;6.32;5.05;;;;;;;8.90;100.00;100395.41;6028810;23;20286;-74
2023/12/28 01:37:23;;;;;;;6.70;4.10;;;;;;;8.88;100.00;100386.78;6055771;23;20296;-72
2023/12/28 01:40:29;;;;;;;4.03;3.83;;;;;;;9.03;100.00;100420.06;6055187;23;20091;-71
2023/12/28 01:42:56;;;;;;;4.60;4.40;;;;;;;8.99;100.00;100397.59;6051896;23;20255;-73
2023/12/28 01:45:22;;;;;;;4.15;3.95;;;;;;;8.48;100.00;100321.63;6044895;23;20408;-72
2023/12/28 01:47:52;;;;;;;4.65;4.35;;;;;;;8.68;100.00;100372.09;6053675;23;20041;-73
2023/12/28 01:50:19;;;;;;;4.65;4.45;;;;;;;8.90;100.00;100408.50;6052859;23;20021;-72
2023/12/28 01:52:47;;;;;;;5.25;5.05;;;;;;;8.61;100.00;100358.47;5992003;23;20027;-73
2023/12/28 01:55:14;;;;;;;4.30;4.10;;;;;;;8.97;100.00;100428.22;6035359;23;20018;-71
2023/12/28 01:57:41;;;;;;;4.00;3.80;;;;;;;8.96;100.00;100431.75;6059027;23;20109;-72
2023/12/28 02:00:08;;;;;;;3.90;3.70;;;;;;;9.00;100.00;100443.78;6031783;23;20046;-72
2023/12/28 02:02:35;;;;;;;4.00;3.80;;;;;;;9.02;100.00;100443.69;6059542;23;20362;-71
2023/12/28 02:05:02;;;;;;;4.18;3.97;;;;;;;9.01;100.00;100442.00;6005436;23;20343;-73
2023/12/28 02:07:29;;;;;;;4.20;4.00;;;;;;;8.96;100.00;100439.59;6056057;23;20351;-73
2023/12/28 02:09:56;;;;;;;4.10;3.90;;;;;;;8.95;100.00;100448.38;6042382;23;20347;-73
2023/12/28 02:12:22;;;;;;;4.20;4.00;;;;;;;8.96;100.00;100444.84;6035292;23;20027;-72
2023/12/28 02:14:49;;;;;;;5.25;4.95;;;;;;;8.82;100.00;100428.97;6027724;23;20445;-70
2023/12/28 02:17:22;;;;;;;5.25;4.10;;;;;;;8.95;100.00;100451.84;6030202;23;20486;-72
2023/12/28 02:19:53;;;;;;;6.30;5.90;;;;;;;9.06;100.00;100453.94;6030822;23;20054;-71
2023/12/28 02:22:23;;;;;;;4.35;4.15;;;;;;;9.14;100.00;100457.03;6027154;23;20054;-71
2023/12/28 02:25:06;;;;;;;5.57;5.25;;;;;;;9.06;100.00;100426.91;6026742;23;20024;-72
2023/12/28 02:27:44;;;;;;;4.32;4.10;;;;;;;8.90;100.00;100419.84;5990310;23;20051;-71
2023/12/28 02:30:11;;;;;;;4.50;4.20;;;;;;;8.99;100.00;100445.53;6032073;23;20018;-71
2023/12/28 02:33:04;;;;;;;3.83;3.63;;;;;;;8.61;100.00;100400.31;6000980;23;20479;-71
2023/12/28 02:35:39;;;;;;;4.30;4.10;;;;;;;8.67;100.00;100446.28;6027697;23;20022;-72
2023/12/28 02:38:09;;;;;;;3.95;3.75;;;;;;;8.88;100.00;100487.09;6008964;23;20027;-70
2023/12/28 02:40:41;;;;;;;4.18;3.88;;;;;;;8.88;100.00;100479.25;6025938;23;20051;-72
2023/12/28 02:43:08;;;;;;;4.18;3.97;;;;;;;8.87;100.00;100479.31;5988736;23;20558;-71
2023/12/28 02:45:35;;;;;;;4.40;4.20;;;;;;;8.88;100.00;100494.09;6010379;23;21468;-72
2023/12/28 02:48:02;;;;;;;4.45;4.25;;;;;;;7.76;100.00;100305.00;6028111;23;20023;-75
2023/12/28 02:50:32;;;;;;;4.68;4.35;;;;;;;8.91;100.00;100492.19;6024026;23;20022;-71
2023/12/28 02:52:59;;;;;;;8.90;4.70;;;;;;;8.86;100.00;100475.00;6027806;23;20029;-71
2023/12/28 02:55:25;;;;;;;4.32;4.13;;;;;;;8.81;100.00;100477.00;6028146;23;20017;-71
2023/12/28 02:58:00;;;;;;;4.13;3.92;;;;;;;8.51;100.00;100447.00;6025637;23;20022;-71
2023/12/28 03:00:28;;;;;;;4.60;4.30;;;;;;;8.83;100.00;100493.47;6026854;23;20022;-72
2023/12/28 03:02:55;;;;;;;5.38;5.07;;;;;;;8.74;100.00;100481.66;5998131;23;20344;-72
2023/12/28 03:05:21;;;;;;;4.80;4.22;;;;;;;8.49;100.00;100427.91;6003851;23;20090;-73
2023/12/28 03:07:48;;;;;;;4.07;3.88;;;;;;;8.78;100.00;100468.38;6029821;23;20078;-72
2023/12/28 03:10:15;;;;;;;4.45;4.25;;;;;;;8.42;100.00;100399.53;6028041;23;20023;-71
2023/12/28 03:12:41;;;;;;;5.38;4.93;;;;;;;8.65;100.00;100443.72;6025846;23;20101;-72
2023/12/28 03:15:08;;;;;;;3.97;3.78;;;;;;;8.57;100.00;100438.88;6027463;23;20226;-70
2023/12/28 03:17:36;;;;;;;4.43;4.20;;;;;;;8.14;100.00;100374.69;5993600;23;20090;-72
2023/12/28 03:20:03;;;;;;;4.00;3.80;;;;;;;8.31;100.00;100415.69;6027010;23;20038;-72
2023/12/28 03:22:30;;;;;;;4.00;3.80;;;;;;;8.26;100.00;100415.06;6026755;23;20112;-73
2023/12/28 03:24:56;;;;;;;4.50;4.30;;;;;;;8.62;100.00;100490.09;6025091;23;20021;-74
2023/12/28 03:27:23;;;;;;;4.93;4.63;;;;;;;8.41;100.00;100450.97;6026136;23;20034;-71
2023/12/28 03:29:49;;;;;;;4.15;3.95;;;;;;;8.59;100.00;100489.34;6003204;23;20089;-71
2023/12/28 03:32:16;;;;;;;4.30;4.10;;;;;;;7.35;100.00;100297.28;6030245;23;20026;-73
2023/12/28 03:34:42;;;;;;;5.00;4.80;;;;;;;8.61;100.00;100473.56;6026476;23;20019;-75
2023/12/28 03:37:11;;;;;;;5.10;4.13;;;;;;;8.45;100.00;100431.59;6029259;23;20034;-73
2023/12/28 03:39:37;;;;;;;5.70;4.07;;;;;;;8.32;100.00;100422.63;6028198;23;20038;-73
2023/12/28 03:42:04;;;;;;;4.30;4.10;;;;;;;8.34;100.00;100439.94;6026308;23;20599;-73
2023/12/28 03:44:30;;;;;;;4.43;4.22;;;;;;;8.55;100.00;100471.25;6026937;23;20086;-71
2023/12/28 03:46:57;;;;;;;5.03;4.82;;;;;;;8.46;100.00;100459.47;6025246;23;20424;-72
2023/12/28 03:49:23;;;;;;;4.80;4.40;;;;;;;8.58;100.00;100468.50;6003342;23;20054;-74
2023/12/28 03:51:51;;;;;;;4.55;4.05;;;;;;;8.61;100.00;100481.41;6024323;23;20018;-72
2023/12/28 03:54:19;;;;;;;4.10;3.90;;;;;;;8.63;100.00;100468.28;6027576;23;20282;-72
2023/12/28 03:56:46;;;;;;;5.82;5.43;;;;;;;8.56;100.00;100449.41;5996301;23;20026;-72
2023/12/28 03:59:15;;;;;;;5.88;4.05;;;;;;;8.65;100.00;100475.13;5999466;23;20034;-73
2023/12/28 04:01:41;;;;;;;4.13;3.92;;;;;;;8.64;100.00;100446.41;5997904;23;20034;-72
2023/12/28 04:04:08;;;;;;;4.32;4.03;;;;;;;8.53;100.00;100423.41;6026178;23;20042;-73
2023/12/28 04:06:35;;;;;;;4.43;4.22;;;;;;;8.47;100.00;100411.47;5973102;23;20043;-72
2023/12/28 04:09:02;;;;;;;4.82;3.97;;;;;;;8.54;100.00;100422.50;6029104;23;20066;-71
2023/12/28 04:11:29;;;;;;;4.25;3.97;;;;;;;8.59;100.00;100423.09;6026171;23;20121;-72
2023/12/28 04:13:55;;;;;;;4.50;4.18;;;;;;;8.26;100.00;100374.09;6053265;23;20051;-70
2023/12/28 04:16:22;;;;;;;4.70;4.30;;;;;;;7.63;100.00;100274.31;6055499;23;20032;-73
2023/12/28 04:18:48;;;;;;;5.32;5.03;;;;;;;8.38;100.00;100402.25;6055842;23;20016;-72
2023/12/28 04:21:15;;;;;;;4.47;4.18;;;;;;;8.29;100.00;100394.00;6035918;23;20095;-72
2023/12/28 04:23:42;;;;;;;4.70;4.28;;;;;;;8.08;100.00;100349.69;6058064;23;20030;-72
2023/12/28 04:26:08;;;;;;;4.30;4.10;;;;;;;8.42;100.00;100394.28;6031784;23;20375;-72
2023/12/28 04:28:35;;;;;;;4.35;4.15;;;;;;;8.29;100.00;100363.47;6032658;23;20027;-74
2023/12/28 04:31:06;;;;;;;4.30;4.00;;;;;;;8.39;100.00;100384.78;6058875;23;20273;-70
2023/12/28 04:33:33;;;;;;;4.03;3.83;;;;;;;8.51;100.00;100420.84;6057855;23;20449;-73
2023/12/28 04:36:03;;;;;;;4.20;4.00;;;;;;;8.23;100.00;100342.84;6055917;23;20045;-71
2023/12/28 04:38:31;;;;;;;4.13;3.80;;;;;;;7.72;100.00;100256.44;6056618;23;20026;-72
2023/12/28 04:40:58;;;;;;;4.53;4.32;;;;;;;8.43;100.00;100369.84;6028964;23;20023;-73
2023/12/28 04:43:25;;;;;;;4.00;3.80;;;;;;;8.46;100.00;100380.13;6031273;23;20025;-73
2023/12/28 04:45:51;;;;;;;5.15;3.83;;;;;;;8.44;100.00;100368.91;6069444;23;20233;-72
2023/12/28 04:48:20;;;;;;;4.55;4.28;;;;;;;7.36;100.00;100191.97;6053900;23;20107;-72
2023/12/28 04:50:48;;;;;;;5.18;4.95;;;;;;;7.86;100.00;100275.81;6053557;23;20423;-73
2023/12/28 04:53:18;;;;;;;4.53;4.32;;;;;;;8.46;100.00;100377.53;6006282;23;20128;-70
2023/12/28 04:55:44;;;;;;;4.22;4.03;;;;;;;8.46;100.00;100381.00;6055975;23;20318;-71
2023/12/28 04:58:12;;;;;;;6.00;4.68;;;;;;;8.24;100.00;100338.47;6056443;23;20026;-69
2023/12/28 05:00:38;;;;;;;4.22;4.03;;;;;;;8.49;100.00;100373.00;6034748;23;20027;-72
2023/12/28 05:03:06;;;;;;;4.20;4.00;;;;;;;8.22;100.00;100322.00;6055744;23;20054;-72
2023/12/28 05:05:33;;;;;;;4.00;3.80;;;;;;;8.17;100.00;100309.16;6027041;23;20029;-72
2023/12/28 05:07:59;;;;;;;3.85;3.65;;;;;;;8.46;100.00;100347.00;6052398;23;20034;-72
2023/12/28 05:10:27;;;;;;;4.22;4.03;;;;;;;7.49;100.00;100171.34;6048406;23;20054;-71
2023/12/28 05:12:53;;;;;;;5.30;5.00;;;;;;;8.41;100.00;100338.53;6044513;23;20022;-73
2023/12/28 05:15:26;;;;;;;3.90;3.70;;;;;;;8.39;100.00;100343.81;5994213;23;20042;-72
2023/12/28 05:17:52;;;;;;;5.22;4.30;;;;;;;7.89;100.00;100278.28;6028148;23;20026;-72
2023/12/28 05:20:19;;;;;;;8.63;5.90;;;;;;;8.38;100.00;100359.59;6058261;23;20064;-71
2023/12/28 05:22:45;;;;;;;6.43;6.10;;;;;;;7.93;100.00;100285.06;6046904;23;20085;-72
2023/12/28 05:25:12;;;;;;;4.85;4.55;;;;;;;7.94;100.00;100303.28;6043474;23;20356;-72
2023/12/28 05:27:38;;;;;;;4.25;4.05;;;;;;;8.33;100.00;100375.47;6034807;23;20050;-72
2023/12/28 05:30:05;;;;;;;4.00;3.80;;;;;;;8.33;100.00;100400.78;6055600;23;20014;-73
2023/12/28 05:32:32;;;;;;;5.28;4.88;;;;;;;8.31;100.00;100386.94;6055039;23;20073;-71
2023/12/28 05:34:58;;;;;;;4.93;4.57;;;;;;;7.91;100.00;100345.22;6040410;23;20379;-73
2023/12/28 05:37:25;;;;;;;4.03;3.83;;;;;;;7.07;100.00;100200.31;6028054;23;20182;-73
2023/12/28 05:39:51;;;;;;;6.38;4.63;;;;;;;8.33;100.00;100411.25;6055790;23;20049;-73
2023/12/28 05:42:18;;;;;;;4.32;4.13;;;;;;;8.31;100.00;100426.16;6028663;23;20183;-73
2023/12/28 05:44:44;;;;;;;5.38;5.10;;;;;;;8.26;100.00;100426.38;6043973;23;20035;-71
2023/12/28 05:47:11;;;;;;;4.47;4.28;;;;;;;7.92;100.00;100382.69;6044083;23;20090;-72
2023/12/28 05:49:37;;;;;;;3.70;3.60;;;;;;;8.37;100.00;100449.41;6045757;23;20378;-72
2023/12/28 05:52:04;;;;;;;4.35;4.05;;;;;;;8.27;100.00;100412.38;6043037;23;20033;-74
2023/12/28 05:54:31;;;;;;;4.30;4.10;;;;;;;7.92;100.00;100301.69;6054603;23;20350;-72
2023/12/28 05:56:59;;;;;;;3.97;3.78;;;;;;;8.69;100.00;100385.09;6050151;23;20019;-74
2023/12/28 05:59:26;;;;;;;3.92;3.72;;;;;;;8.91;100.00;100358.72;5998183;23;20030;-73
2023/12/28 06:01:52;;;;;;;4.00;3.80;;;;;;;8.96;100.00;100334.91;6049628;23;20025;-71
2023/12/28 06:04:19;;;;;;;3.75;3.63;;;;;;;8.88;100.00;100301.31;6028182;23;20035;-74
2023/12/28 06:06:46;;;;;;;5.10;4.80;;;;;;;9.01;100.00;100305.91;6051726;23;20019;-71
2023/12/28 06:09:12;;;;;;;4.13;3.90;;;;;;;8.55;100.00;100217.56;6028755;23;20404;-72
2023/12/28 06:11:39;;;;;;;4.60;4.13;;;;;;;9.07;100.00;100282.88;6055221;23;20090;-73
2023/12/28 06:14:05;;;;;;;4.15;3.85;;;;;;;9.05;100.00;100260.31;6030056;23;20615;-72
2023/12/28 06:16:33;;;;;;;3.95;3.75;;;;;;;9.16;100.00;100258.81;6049953;23;20037;-73
2023/12/28 06:19:00;;;;;;;4.13;3.92;;;;;;;9.09;100.00;100233.88;6011029;23;20085;-70
2023/12/28 06:21:28;;;;;;;7.10;4.25;;;;;;;9.02;100.00;100222.06;6048625;23;20038;-71
2023/12/28 06:23:55;;;;;;;4.97;4.25;;;;;;;9.10;100.00;100230.38;5997818;23;20030;-72
2023/12/28 06:26:21;;;;;;;6.18;4.43;;;;;;;9.17;100.00;100226.47;6041065;23;20026;-73
2023/12/28 06:28:48;;;;;;;5.05;4.85;;;;;;;9.04;100.00;100190.56;6052222;23;20041;-72
2023/12/28 06:31:14;;;;;;;4.00;3.80;;;;;;;8.63;100.00;100109.91;6052468;23;20018;-73
2023/12/28 06:33:41;;;;;;;4.00;3.80;;;;;;;9.17;100.00;100166.25;6019848;23;20089;-71
2023/12/28 06:36:08;;;;;;;4.43;4.22;;;;;;;9.38;100.00;100166.00;6048116;23;20042;-73
2023/12/28 06:38:34;;;;;;;4.38;4.18;;;;;;;9.40;100.00;100153.66;6046271;23;20227;-73
2023/12/28 06:41:01;;;;;;;4.50;4.25;;;;;;;8.39;100.00;99984.75;6054724;23;20046;-72
2023/12/28 06:43:27;;;;;;;11.10;4.00;;;;;;;9.40;100.00;100156.28;6050279;23;20022;-74
2023/12/28 06:45:54;;;;;;;5.07;4.63;;;;;;;9.36;100.00;100141.66;6049696;23;20033;-73
2023/12/28 06:48:20;;;;;;;5.60;5.18;;;;;;;9.38;100.00;100142.41;6052946;23;20057;-73
2023/12/28 06:50:47;;;;;;;6.00;5.55;;;;;;;8.72;100.00;100055.34;6051602;23;20026;-72
2023/12/28 06:53:13;;;;;;;4.80;4.38;;;;;;;9.04;100.00;100114.66;6055933;23;20014;-74
2023/12/28 06:55:40;;;;;;;3.75;3.63;;;;;;;8.71;100.00;100071.09;6060946;23;20186;-71
2023/12/28 06:58:07;;;;;;;4.10;3.90;;;;;;;9.23;100.00;100167.69;6050846;23;20019;-72
2023/12/28 07:00:34;;;;;;;6.28;3.90;;;;;;;9.26;100.00;100172.78;6045736;23;20070;-72
2023/12/28 07:03:01;;;;;;;4.80;4.60;;;;;;;8.95;100.00;100100.31;6036031;23;20042;-71
2023/12/28 07:05:27;;;;;;;3.90;3.70;;;;;;;9.33;100.00;100165.41;6047436;23;20037;-73
2023/12/28 07:07:54;;;;;;;4.10;3.90;;;;;;;9.34;100.00;100152.25;6054188;23;20021;-73
2023/12/28 07:10:20;;;;;;;4.00;3.80;;;;;;;9.25;100.00;100121.31;6057561;23;20028;-72
2023/12/28 07:12:47;;;;;;;11.40;5.13;;;;;;;8.84;100.00;100048.59;6035213;23;20728;-73
2023/12/28 07:15:14;;;;;;;4.35;4.05;;;;;;;9.24;100.00;100127.50;6047494;23;20085;-72
2023/12/28 07:17:41;;;;;;;5.55;4.05;;;;;;;9.38;100.00;100174.72;6034535;23;20015;-73
2023/12/28 07:20:11;;;;;;;3.90;3.70;;;;;;;9.32;100.00;100143.63;6038631;23;20027;-72
2023/12/28 07:22:38;;;;;;;4.35;4.05;;;;;;;9.33;100.00;100163.63;6055578;23;20030;-73
2023/12/28 07:25:06;;;;;;;4.45;4.25;;;;;;;8.96;100.00;100107.22;6033783;23;20247;-72
2023/12/28 07:27:34;;;;;;;4.15;3.95;;;;;;;9.01;100.00;100120.06;6055431;23;20047;-72
2023/12/28 07:30:01;;;;;;;4.38;4.18;;;;;;;9.38;100.00;100198.28;6035781;23;20030;-74
2023/12/28 07:32:28;;;;;;;4.45;4.20;;;;;;;9.07;100.00;100099.63;6056172;23;20347;-72
2023/12/28 07:34:56;;;;;;;6.53;5.78;;;;;;;9.26;100.00;100132.63;6015804;23;20007;-73
2023/12/28 07:37:22;;;;;;;4.03;3.83;;;;;;;8.76;100.00;100062.09;6045587;23;20225;-73
2023/12/28 07:39:49;;;;;;;4.40;4.10;;;;;;;8.63;100.00;100063.66;6018252;23;20247;-73
2023/12/28 07:42:15;;;;;;;4.25;4.05;;;;;;;9.32;100.00;100187.28;6052911;23;20047;-74
2023/12/28 07:44:43;;;;;;;11.70;4.78;;;;;;;9.15;100.00;100156.81;6051569;23;20035;-70
2023/12/28 07:47:09;;;;;;;4.45;4.00;;;;;;;9.06;100.00;100136.34;6030663;23;20030;-73
2023/12/28 07:49:36;;;;;;;5.20;4.40;;;;;;;9.21;100.00;100169.56;6033622;23;20030;-73
2023/12/28 07:52:03;;;;;;;4.20;4.00;;;;;;;8.42;100.00;100038.66;6059658;23;20050;-73
2023/12/28 07:54:29;;;;;;;3.75;3.63;;;;;;;8.96;100.00;100130.78;6040652;23;20018;-73
2023/12/28 07:56:56;;;;;;;4.78;4.47;;;;;;;9.13;100.00;100177.81;6059578;23;20657;-74
2023/12/28 07:59:24;;;;;;;4.55;4.15;;;;;;;8.70;100.00;100100.78;6047729;23;20035;-74
2023/12/28 08:01:51;;;;;;;3.90;3.70;;;;;;;8.88;100.00;100131.22;6064771;23;20010;-73
2023/12/28 08:04:18;;;;;;;5.13;4.25;;;;;;;8.99;100.00;100173.34;6066689;23;20026;-73
2023/12/28 08:06:44;;;;;;;5.40;5.10;;;;;;;9.41;100.00;100222.63;6067392;23;20022;-73
2023/12/28 08:09:11;;;;;;;6.50;4.38;;;;;;;8.37;100.00;100080.72;6065479;23;20030;-74
2023/12/28 08:11:37;;;;;;;10.20;4.32;;;;;;;8.95;100.00;100170.97;6038190;23;20041;-74
2023/12/28 08:14:05;;;;;;;4.70;4.50;;;;;;;9.06;100.00;100192.19;6068375;23;20089;-75
2023/12/28 08:16:32;;;;;;;4.70;4.45;;;;;;;8.36;100.00;100098.19;6005928;23;20042;-74
2023/12/28 08:18:58;;;;;;;4.47;4.18;;;;;;;9.41;100.00;100265.34;6058100;23;20253;-74
2023/12/28 08:21:25;;;;;;;4.00;3.80;;;;;;;9.44;100.00;100236.41;6044186;23;20259;-73
2023/12/28 08:23:51;;;;;;;3.90;3.70;;;;;;;9.13;100.00;100180.44;6024309;23;20025;-74
2023/12/28 08:26:18;;;;;;;4.47;4.00;;;;;;;8.69;100.00;100097.34;6055469;23;20216;-75
2023/12/28 08:28:44;;;;;;;6.38;5.75;;;;;;;9.34;100.00;100201.13;6054550;23;20107;-72
2023/12/28 08:31:12;;;;;;;4.15;3.95;;;;;;;9.35;100.00;100151.31;6029774;23;20020;-73
2023/12/28 08:33:39;;;;;;;4.10;3.90;;;;;;;8.78;100.00;100070.69;6055828;23;20340;-75
2023/12/28 08:36:07;;;;;;;4.90;4.70;;;;;;;9.23;100.00;100156.38;6026097;23;20023;-72
2023/12/28 08:38:34;;;;;;;4.18;3.90;;;;;;;8.26;100.00;99996.78;6041852;23;20018;-72
2023/12/28 08:41:03;;;;;;;4.05;3.85;;;;;;;9.53;100.00;100207.06;6039145;23;20997;-72
2023/12/28 08:43:30;;;;;;;4.40;4.20;;;;;;;9.30;100.00;100166.44;6017684;23;20400;-74
2023/12/28 08:45:56;;;;;;;4.30;4.10;;;;;;;9.13;100.00;100129.88;6054363;23;20256;-72
2023/12/28 08:48:23;;;;;;;4.72;4.45;;;;;;;9.57;100.00;100205.94;6030097;23;20077;-72
2023/12/28 08:50:50;;;;;;;9.20;5.28;;;;;;;9.18;100.00;100104.25;6054876;23;20556;-72
2023/12/28 08:53:17;;;;;;;4.30;4.10;;;;;;;9.71;100.00;100186.84;6055305;23;20022;-72
2023/12/28 08:55:43;;;;;;;11.60;11.00;;;;;;;9.35;100.00;100140.81;5929329;23;20537;-73
2023/12/28 08:58:10;;;;;;;4.25;4.00;;;;;;;9.42;100.00;100141.34;6013732;23;20010;-73
2023/12/28 09:00:36;;;;;;;4.13;3.92;;;;;;;8.83;100.00;100052.13;6017570;23;20030;-74
2023/12/28 09:03:03;;;;;;;4.35;4.05;;;;;;;9.71;100.00;100138.84;6036159;23;20092;-73
2023/12/28 09:05:30;;;;;;;5.20;4.05;;;;;;;9.87;100.00;100146.66;6058306;23;20030;-72
2023/12/28 09:07:57;;;;;;;4.40;4.10;;;;;;;9.68;100.00;100100.56;6017183;23;20369;-72
2023/12/28 09:10:24;;;;;;;3.60;3.50;;;;;;;9.42;100.00;100040.97;6040559;23;20054;-73
2023/12/28 09:12:51;;;;;;;5.43;5.03;;;;;;;10.05;100.00;100129.84;6016138;23;20019;-72
2023/12/28 09:15:17;;;;;;;4.10;3.90;;;;;;;9.71;100.00;100057.59;6022265;23;20431;-74
2023/12/28 09:17:44;;;;;;;4.13;3.92;;;;;;;10.11;100.00;100097.19;6035367;23;20254;-71
2023/12/28 09:20:11;;;;;;;5.68;5.38;;;;;;;9.03;100.00;99927.16;6003550;23;20251;-73
2023/12/28 09:22:38;;;;;;;4.05;3.85;;;;;;;9.91;100.00;100093.97;6010202;23;20030;-72
2023/12/28 09:25:05;;;;;;;4.85;4.55;;;;;;;10.06;100.00;100084.31;6009295;23;20037;-73
2023/12/28 09:27:32;;;;;;;4.65;4.30;;;;;;;9.06;100.00;99940.91;6031071;23;20018;-73
2023/12/28 09:29:58;;;;;;;4.03;3.83;;;;;;;10.08;100.00;100119.19;6042329;23;20397;-71
2023/12/28 09:32:27;;;;;;;4.03;3.83;;;;;;;10.13;100.00;100122.38;6029086;23;20263;-73
2023/12/28 09:34:54;;;;;;;5.65;5.00;;;;;;;10.03;100.00;100100.25;6040482;23;20661;-72
2023/12/28 09:37:21;;;;;;;3.85;3.75;;;;;;;10.07;100.00;100121.91;6040159;23;20027;-72
2023/12/28 09:39:47;;;;;;;5.65;4.47;;;;;;;10.07;100.00;100114.88;6018212;23;20077;-73
2023/12/28 09:42:26;;;;;;;4.45;4.22;;;;;;;10.28;100.00;100154.69;6030355;23;20289;-72
2023/12/28 09:44:53;;;;;;;7.28;5.03;;;;;;;9.18;100.00;99952.41;6036042;23;20098;-74
2023/12/28 09:47:19;;;;;;;4.20;4.00;;;;;;;10.12;100.00;100072.63;6038736;23;20053;-73
2023/12/28 09:49:47;;;;;;;4.00;3.80;;;;;;;9.16;99.24;99901.94;6039920;23;20030;-74
2023/12/28 09:52:13;;;;;;;4.35;4.13;;;;;;;9.96;98.79;100047.38;6044134;23;20438;-73
2023/12/28 09:54:40;;;;;;;4.78;4.47;;;;;;;10.72;97.90;100131.97;6037984;23;20539;-72
2023/12/28 09:57:07;;;;;;;4.57;4.38;;;;;;;10.38;96.92;100016.00;6042694;23;20034;-73
2023/12/28 09:59:34;;;;;;;4.55;4.25;;;;;;;10.16;96.41;99958.75;6039730;23;20014;-73
2023/12/28 10:02:03;;;;;;;4.50;4.20;;;;;;;10.87;95.85;100052.28;6048892;23;20070;-73
2023/12/28 10:04:31;;;;;;;4.82;4.53;;;;;;;10.36;94.87;99947.91;6038284;23;20037;-73
2023/12/28 10:06:57;;;;;;;4.35;4.15;;;;;;;10.53;94.93;99985.34;6034751;23;20404;-73
2023/12/28 10:09:26;;;;;;;4.80;4.40;;;;;;;10.90;94.07;100014.47;6039980;23;20027;-74
2023/12/28 10:11:54;;;;;;;4.30;4.00;;;;;;;10.68;94.31;99965.16;6034199;23;20007;-72
2023/12/28 10:14:20;;;;;;;4.20;4.00;;;;;;;10.47;93.91;99938.53;6016143;23;20045;-73
2023/12/28 10:16:48;;;;;;;5.82;5.45;;;;;;;10.77;94.24;100007.41;6032954;23;20046;-72
2023/12/28 10:19:14;;;;;;;4.75;4.53;;;;;;;10.61;93.79;99964.72;6023866;23;20090;-72
2023/12/28 10:21:43;;;;;;;4.00;3.80;;;;;;;10.37;92.07;99876.16;6007873;23;20025;-73
2023/12/28 10:24:10;;;;;;;4.63;4.35;;;;;;;9.83;91.11;99758.13;6041431;23;20025;-73
2023/12/28 10:26:37;;;;;;;4.63;4.32;;;;;;;11.00;90.40;99922.84;6005969;23;20150;-73
2023/12/28 10:29:03;;;;;;;4.68;4.43;;;;;;;11.11;89.97;99925.59;6007384;23;20402;-73
2023/12/28 10:31:30;;;;;;;4.07;3.88;;;;;;;10.67;90.38;99890.00;5984024;23;20188;-73
2023/12/28 10:34:02;;;;;;;4.20;4.00;;;;;;;10.76;89.06;99852.63;5986624;23;20348;-72
2023/12/28 10:36:32;;;;;;;4.43;4.13;;;;;;;10.89;87.87;99844.81;6016789;23;20027;-74
2023/12/28 10:39:00;;;;;;;4.45;4.15;;;;;;;11.24;86.83;99873.06;6027579;23;20254;-72
2023/12/28 10:41:30;;;;;;;5.13;4.78;;;;;;;11.33;85.06;99846.19;6041150;23;20165;-71
2023/12/28 10:44:05;;;;;;;4.55;4.25;;;;;;;11.92;84.56;99890.28;6041680;23;20206;-73
2023/12/28 10:46:41;;;;;;;5.13;4.60;;;;;;;12.12;83.07;99876.53;6028903;23;20030;-70
2023/12/28 10:49:14;;;;;;;5.22;4.90;;;;;;;11.44;81.37;99727.22;6019114;23;20026;-72
2023/12/28 10:51:43;;;;;;;4.80;4.50;;;;;;;12.23;79.58;99778.47;6040933;23;20027;-72
2023/12/28 10:54:40;;;;;;;4.97;4.60;;;;;;;12.33;79.49;99765.47;6033260;23;20038;-73
2023/12/28 10:57:27;;;;;;;5.68;5.20;;;;;;;12.43;78.70;99786.66;6037953;23;20410;-73
2023/12/28 11:00:09;;;;;;;4.80;4.40;;;;;;;12.31;77.44;99696.34;6008391;23;20123;-74
2023/12/28 11:02:44;;;;;;;5.45;5.05;;;;;;;12.20;78.49;99773.41;6031668;23;20086;-73
2023/12/28 11:05:12;;;;;;;7.00;5.60;;;;;;;12.08;78.37;99759.38;6017041;23;20021;-72
2023/12/28 11:07:41;;;;;;;4.57;4.30;;;;;;;11.66;78.21;99679.19;6034975;23;20616;-73
2023/12/28 11:10:10;;;;;;;4.97;4.68;;;;;;;11.98;78.01;99761.84;6048716;23;20018;-75
2023/12/28 11:12:38;;;;;;;4.57;4.28;;;;;;;12.09;79.13;99824.19;6067751;23;20036;-73
2023/12/28 11:15:06;;;;;;;5.18;4.82;;;;;;;12.01;79.02;99828.31;6054970;23;20433;-73
2023/12/28 11:17:37;;;;;;;5.53;5.03;;;;;;;11.75;79.49;99820.47;6057244;23;20025;-72
2023/12/28 11:20:05;;;;;;;7.68;4.60;;;;;;;11.40;78.97;99742.34;6056996;23;20035;-72
2023/12/28 11:22:33;;;;;;;4.63;4.20;;;;;;;12.23;79.37;99873.16;6023295;23;20097;-73
2023/12/28 11:24:59;;;;;;;4.50;4.30;;;;;;;12.17;79.35;99858.66;6055334;23;20449;-72
2023/12/28 11:27:33;;;;;;;4.80;4.60;;;;;;;12.25;78.77;99878.28;6028263;23;20027;-75
2023/12/28 11:30:01;;;;;;;6.30;4.35;;;;;;;12.09;77.28;99770.75;6023406;23;20046;-72